ES-0067 weather

Aeródromo de Hiendelaencina-Alto Rey
Hiendelaencina, Castilla-La Mancha, Spain

Public forecast

Using degrees Celsius for public forecast. Weather courtesy of forecast.io.

Closest aviation weather report (METAR) to Aeródromo de Hiendelaencina-Alto Rey

Closest report is Torrejón Airport, 42.3 nm (78.2 km) SSW. Retrieved 2019/10/19 15:00 UTC (50 minutes ago):

LETO 191500Z 20014KT 9999 BKN035 18/10 Q1008 NOSIG

Closest aviation forecast (TAF) to Aeródromo de Hiendelaencina-Alto Rey

Closest forecast is Torrejón Airport, 42.3 nm (78.2 km) SSW. Retrieved 2019/10/19 12:27 UTC (3 hours ago):

TAF TAF LETO 191100Z 1912/2012 22010KT 9999 BKN035 TX20/1915Z TN07/2006Z PROB40 TEMPO 1914/1917 22012G22KT TEMPO 1918/1924 4000 DZRA BR BKN012 OVC025 PROB40 TEMPO 1919/1924 4000 TS SHRA SCT020CB PROB40 TEMPO 2006/2012 4000 SHRA BKN014 SCT025TCU